Aviation Digital Data Service (ADDS)

Output produced by METARs form (0640 UTC 27 March 2017)
found at http://www.aviationweather.gov/adds/metars/
 
KMAF 270525Z 2706/2806 28008KT P6SM SKC 
     FM270900 01010KT P6SM SKC 
     FM272100 16008KT P6SM SKC
       
KMBG 270525Z 2706/2806 VRB04KT P6SM OVC110
       
KMBS 270520Z 2706/2806 00000KT 1/2SM FG VV002 
     FM270800 VRB03KT 4SM BR OVC004 
     FM271500 24008KT P6SM BKN015 OVC050 
     FM271800 26008KT P6SM SCT025 BKN050 
     FM280000 VRB03KT P6SM SCT025 OVC100 
     FM280300 02010KT P6SM SCT010 OVC030
       
KMCB 270603Z 2706/2806 16006KT 6SM BR OVC005 
     FM270800 18005KT 2SM BR BKN005 
     FM271500 19011KT P6SM BKN040 
     PROB30 2719/2722 4SM -TSRA OVC025CB
       
KMCE 270537Z 2706/2806 VRB03KT P6SM BKN050 OVC100 
     TEMPO 2706/2710 5SM -SHRA SCT020 BKN035 
     FM271400 32009KT P6SM OVC025 
     FM271700 32016G27KT P6SM SCT030 BKN050 
     FM280300 32012KT P6SM SCT250
       
TAF KMCF 270000Z 2700/2806 11006KT 9999 BKN040 QNH3000INS 
     BECMG 2708/2709 VRB06KT 4800 BR SCT012 BKN035 QNH3003INS 
     BECMG 2714/2715 VRB06KT 9999 NSW SCT040 QNH3002INS TX31/2720Z TN16/2710Z
       
KMCI 270520Z 2706/2806 05008KT P6SM -SHRA SCT025 BKN050 
     TEMPO 2706/2709 5SM -SHRA BR BKN025 
     FM270900 04006KT 5SM -SHRA BR OVC018 
     TEMPO 2710/2714 4SM -SHRA BR OVC008 
     FM271400 01009KT P6SM OVC015 
     FM272300 35008KT P6SM SCT025
       
KMCK 270539Z 2706/2806 25006KT P6SM SKC 
     TEMPO 2706/2708 4SM BR 
     FM270800 VRB03KT 3SM BR BKN070 
     FM270900 VRB03KT 1 1/2SM BR BKN005 
     FM271200 VRB03KT 1/4SM FG OVC002 
     FM271600 VRB03KT 4SM BR OVC002 
     FM271700 VRB04KT P6SM BKN009 
     FM271800 VRB05KT P6SM SCT009
       
KMCN 270520Z 2706/2806 00000KT P6SM SCT080 
     FM270900 17004KT 6SM BR BKN015 
     FM271100 17004KT 3SM BR BKN008 
     FM271500 20006KT P6SM BKN035 
     FM271800 22007KT P6SM BKN045 
     FM272100 21007KT P6SM VCSH BKN050
       
KMCO 270539Z 2706/2806 VRB03KT P6SM FEW090 
     FM271500 08008KT P6SM SCT045 SCT250 
     FM280000 10005KT P6SM FEW050
       
KMCW 270520Z 2706/2806 34005KT 3SM BR OVC006 
     FM270800 01007KT 6SM BR OVC004 
     FM271700 01006KT P6SM BKN007 
     FM271900 01008KT P6SM BKN013 
     FM272000 01007KT P6SM BKN022 
     FM280200 02006KT P6SM BKN030
       
KMDT 270611Z 2706/2806 10007KT 2SM -RA BR OVC005 
     FM271600 17004KT 5SM BR BKN010 
     FM272000 20005KT P6SM SCT025 BKN050 
     FM280300 12003KT 4SM BR OVC050
       
KMDW 270539Z 2706/2806 27006KT 3SM BR OVC004 
     FM271400 05005KT 4SM BR OVC006 
     FM271600 06007KT P6SM SCT007 OVC010 
     TEMPO 2720/2724 5SM -SHRA BR BKN007 
     FM280100 03011KT P6SM VCSH FEW007 BKN015
       
KMEI 270545Z 2706/2806 18007KT P6SM BKN012 
     FM270700 18005KT 5SM BR BKN008 
     FM271000 18005KT 2SM BR BKN003 
     FM271200 19005KT 4SM BR BKN003 
     FM271400 19007KT P6SM BKN008 
     FM271500 20010KT P6SM OVC015 
     FM271600 20013G19KT P6SM SCT040 
     FM272200 20011KT P6SM VCTS BKN050CB
       
KMEM 270638Z 2707/2806 14005KT P6SM BKN250 
     FM270800 17006KT P6SM VCSH SCT050 BKN090 OVC250 
     FM271300 19013G20KT P6SM SHRA VCTS BKN020CB OVC150 
     TEMPO 2714/2717 3SM TSRA OVC015CB 
     FM271800 21015G28KT 6SM SHRA SCT015 OVC050 
     FM280300 25010G20KT P6SM VCSH OVC020
       
KMER 270537Z 2706/2806 VRB04KT P6SM BKN050 OVC100 
     TEMPO 2706/2710 5SM -SHRA SCT020 BKN035 
     FM271400 32009KT P6SM OVC025 
     FM271700 32016G26KT P6SM SCT030 BKN050 
     FM280300 32012KT P6SM SCT250
       
KMFE 270520Z 2706/2806 14012KT P6SM FEW015 
     FM271600 14012G20KT P6SM SCT050 
     FM280000 14012KT P6SM SCT025
       
KMFR 270533Z 2706/2806 VRB03KT P6SM -SHRA SCT040 OVC060 
     FM270800 VRB03KT P6SM VCSH BKN020 OVC040 
     FM271900 32005KT P6SM VCSH BKN035 OVC060
       
TAF KMGE 270500Z 2705/2811 17006KT 9999 SCT006 SCT015 QNH3004INS 
     BECMG 2708/2709 19003KT 4800 BR OVC015 QNH3001INS 
     TEMPO 2709/2712 OVC008 
     BECMG 2715/2716 21009KT 9999 NSW FEW008 SCT015 BKN070 OVC200 QNH3003INS 
     BECMG 2717/2718 22010G15KT 9999 FEW025 SCT055 BKN250 QNH2996INS 
     BECMG 2723/2724 21006KT 9999 FEW040 SCT200 QNH2995INS 
     BECMG 2808/2809 21006KT 6000 -RA BR BKN006 OVC060 QNH2992INS TX26/2721Z TN15/2711Z
       
KMGM 270529Z 2706/2806 19008KT P6SM SCT009 BKN015 
     FM270700 12003KT 4SM BR OVC006 
     TEMPO 2711/2713 00000KT 1SM BR OVC003 
     FM271500 15006KT P6SM OVC015 
     FM271700 19010KT P6SM SCT050 BKN250
       
KMGW 270533Z 2706/2806 19007KT 6SM -SHRA BKN050 
     FM271000 21005KT P6SM VCSH OVC025 
     FM271400 22006KT P6SM OVC045 
     FM280200 18003KT P6SM VCSH BKN090
       
KMHK 270520Z 2706/2806 04005KT 6SM -RA BR OVC008 
     TEMPO 2708/2710 5SM RA SCT008 OVC012 
     FM271500 01007KT P6SM OVC012 
     FM272100 02005KT P6SM SCT035
       
KMHR 270546Z 2706/2806 14005KT P6SM VCSH OVC040 
     FM270900 22008KT P6SM SCT025 
     TEMPO 2710/2714 BKN020 
     FM272000 32011KT P6SM SCT030 AMD NOT SKED
       
KMHT 270522Z 2706/2806 VRB03KT P6SM OVC035 
     FM270900 10004KT 4SM -FZRA BR OVC015 
     FM271300 04004KT 2SM -RA BR OVC007 
     FM272200 01004KT 4SM -SHRA BR OVC015
       
KMIA 270520Z 2706/2806 06005KT P6SM FEW035 SCT250 
     FM271400 07010KT P6SM SCT030 SCT250 
     FM280200 08005KT P6SM FEW030 SCT250
       
TAF KMIB 270100Z 2701/2807 VRB06KT 9999 FEW080 QNH2986INS 
     BECMG 2714/2715 09009KT 9999 SCT150 QNH2989INS 
     BECMG 2723/2724 VRB06KT 9999 SCT080 OVC150 QNH2990INS TX07/2701Z TN04/2712Z
       
KMIV 270523Z 2706/2806 10003KT 1SM BR OVC002 
     FM271400 22006KT 4SM BR OVC005 
     TEMPO 2714/2717 -SHRA BKN020 
     FM271700 23010KT P6SM BKN020 BKN200 
     FM272000 23006KT P6SM VCSH BKN050
       
KMKE 270520Z 2706/2812 00000KT 1 1/2SM BR OVC003 
     FM271500 VRB02KT 3SM BR OVC008 
     FM271800 06004KT P6SM OVC010 
     FM271900 06005KT P6SM OVC015 
     FM280000 03007KT P6SM OVC010 
     FM280500 01008KT P6SM BKN020
       
KMKL 270530Z 2706/2806 16003KT P6SM BKN250 
     FM271300 19010G20KT P6SM SCT020 BKN100 
     FM271600 20012G22KT 6SM SHRA VCTS BKN020CB OVC150 
     TEMPO 2717/2720 3SM TSRA OVC015CB 
     FM272100 20011G22KT 6SM SHRA BKN025 OVC050 
     FM280400 22010KT P6SM VCSH SCT020 BKN050
       
KMLB 270539Z 2706/2806 11005KT P6SM SKC 
     FM271500 07010KT P6SM SCT040 
     FM280200 11005KT P6SM FEW030
       
KMLI 270606Z 2706/2806 26006KT 6SM BR OVC010 
     FM270800 32005KT 2SM -DZ BR OVC008 
     FM271500 04006KT 4SM -SHRA BR OVC008 
     FM272000 01006KT P6SM OVC012
       
KMLS 270523Z 2706/2806 VRB06KT P6SM FEW080 
     FM272100 15008KT P6SM VCSH BKN080
       
KMLU 270522Z 2706/2806 18008KT P6SM SCT070 
     FM270900 18007KT P6SM VCSH BKN025 
     FM271800 22013G19KT P6SM VCSH BKN050 
     FM280100 21004KT P6SM BKN050
       
KMMH 270529Z 2706/2806 28010KT P6SM BKN050 OVC090 
     FM271000 25014G22KT P6SM VCSH BKN045 OVC080 
     FM271400 25015G25KT 3SM -SHSN SCT025 BKN035 
     FM271800 27020G32KT P6SM VCSH SCT030 BKN050 
     FM280300 30018G30KT P6SM SCT050 BKN070
       
TAF KMMT 262300Z 2623/2805 15006KT 9999 BKN050 QNH3007INS 
     BECMG 2708/2709 VRB06KT 3200 BR BKN015 QNH3006INS 
     BECMG 2710/2711 VRB04KT 0800 FG OVC002 QNH3007INS 
     BECMG 2713/2714 20012KT 9999 NSW BKN030 QNH3006INS 
     BECMG 2718/2719 18010G15KT 8000 -SHRA BKN025 BKN150 QNH2999INS 
     BECMG 2722/2723 19009KT 9999 NSW BKN025 BKN200 QNH3000INS TX27/2720Z TN12/2710Z
       
KMOB 270533Z 2706/2806 16009KT P6SM SCT007 SCT022 
     TEMPO 2709/2713 1SM BR OVC002 
     FM271800 18013G20KT P6SM VCSH SCT025 BKN050 
     FM280300 17006KT 4SM BR OVC004
       
KMOT 270520Z 2706/2806 13006KT P6SM BKN120 
     FM271400 07004KT 5SM BR BKN080 
     FM271600 07005KT P6SM BKN060 
     FM280000 07007KT P6SM BKN030
       
KMPV 270532Z 2706/2806 18007KT P6SM OVC015 
     FM271000 17007KT 5SM -FZRA BR OVC020 
     FM271500 17007KT 5SM -RA BR OVC020 
     FM272000 17004KT P6SM VCSH OVC025 
     FM280000 00000KT P6SM OVC020
       
KMRY 270520Z 2706/2806 VRB04KT P6SM VCSH BKN019 BKN024 OVC050 
     FM270800 25007KT P6SM FEW020 BKN035 
     FM271300 28008KT P6SM BKN025 
     FM271800 28012KT P6SM FEW025 SCT050 
     FM272100 28013KT P6SM FEW035 
     FM280400 25007KT P6SM SCT025
       
KMRB 270521Z 2706/2806 11004KT 5SM BR OVC004 
     FM271200 20004KT P6SM BKN003 
     FM271300 21004KT P6SM BKN008 
     FM271600 23007KT P6SM BKN050 
     FM272100 24007KT P6SM SCT050 
     FM272300 25005KT P6SM BKN050
       
KMSL 270520Z 2706/2806 VRB03KT P6SM SCT250 
     FM270800 16003KT P6SM SCT025 BKN040 
     FM271300 18010KT P6SM BKN025 
     FM271900 20013G20KT P6SM SCT040 
     FM272200 21015G22KT P6SM VCTS SCT050CB 
     FM280100 18009KT P6SM VCTS SCT050CB
       
KMSO 270537Z 2706/2806 28007KT P6SM -SHRA OVC035 
     FM270601 33007KT P6SM VCSH OVC040 
     FM271500 30006KT P6SM -SHRA BKN025 OVC040 
     FM271800 30010KT P6SM VCSH SCT040 OVC060 
     FM280100 31007KT P6SM BKN060
       
KMSN 270520Z 2706/2806 VRB03KT 1 1/2SM BR OVC005 
     FM271600 VRB03KT 5SM BR OVC008 
     FM271800 VRB03KT P6SM OVC010 
     FM280000 03005KT P6SM OVC008
       
KMSP 270522Z 2706/2812 35004KT P6SM SCT012 OVC022 
     TEMPO 2706/2710 5SM BR BKN012 
     FM271400 02005KT P6SM BKN025 OVC070 
     FM271600 03007KT P6SM SCT030 BKN090 
     FM271800 04006KT P6SM BKN250
       
KMSS 270532Z 2706/2806 08007KT P6SM OVC020 
     FM270800 09007KT 5SM -RA BR OVC020 
     FM271100 09006KT 5SM -RA BR OVC015 
     FM271700 13006KT 5SM -RA BR OVC015 
     FM272200 VRB03KT P6SM VCSH OVC008
       
KMSY 270522Z 2706/2806 14007KT P6SM BKN020 
     FM271000 15004KT 3SM BR BKN012 
     FM271500 18010KT P6SM SCT050
       
TAF KMTC 270100Z 2701/2807 16006KT 0800 -SHRA FG OVC001 610709 QNH2983INS 
     BECMG 2706/2707 20006KT 0800 FG OVC006 QNH2984INS 
     BECMG 2714/2715 24009KT 9999 NSW BKN015 OVC040 QNH2987INS 
     BECMG 2717/2718 24009KT 9999 BKN020 QNH2986INS 
     BECMG 2722/2723 18009KT 9999 SCT025 BKN075 QNH2985INS 
     BECMG 2803/2804 04009KT 9000 -RA BKN025 OVC040 620859 510303 QNH2988INS 
     BECMG 2805/2806 05009KT 8000 -RA OVC010 620759 510153 QNH2989INS TX14/2721Z TN07/2708Z LAST NO AMDS AFT 2703 NEXT 2709
       
KMTH 270524Z 2706/2806 07008KT P6SM FEW030
       
KMTJ 270539Z 2706/2806 13007KT P6SM SCT100 
     FM271800 23008KT P6SM BKN100 
     FM272000 23008KT P6SM VCSH BKN080 
     FM280300 14005KT P6SM VCSH BKN050
       
KMTN 262330Z 2700/2724 09009KT 2SM -DZ OVC008 
     FM270600 12006KT 1SM -DZ BR OVC003 WS020/18030KT 
     FM270900 16006KT 1SM -DZ BR OVC003 WS020/20035KT 
     FM271200 19007KT P6SM BKN003 
     FM271300 19007KT P6SM BKN008 
     FM271700 22008KT P6SM BKN050 AMD NOT SKED 2702/2712
       
KMTW 270520Z 2706/2806 33005KT 6SM BR OVC006 
     TEMPO 2706/2709 3SM -DZ BR SCT006 OVC025 
     FM271200 35003KT 5SM BR OVC007 
     FM271700 02005KT 6SM BR OVC012 
     FM272300 03005KT P6SM OVC015
       
KMWH 270637Z 2707/2806 VRB03KT P6SM VCSH BKN009 OVC017 
     FM271200 20003KT 6SM BCFG SCT003 OVC007 
     FM271900 21006KT P6SM SCT080 SCT250 
     FM280300 26006KT P6SM SCT080
       
TAF KMXF 261900Z 2619/2801 19009KT 9999 SCT025 QNH3001INS 
     BECMG 2700/2701 18006KT 9999 FEW018 QNH3000INS 
     BECMG 2705/2706 VRB06KT 4800 BR OVC007 QNH3004INS 
     BECMG 2711/2712 VRB06KT 9999 NSW OVC009 QNH3009INS 
     BECMG 2713/2714 20009KT 9999 BKN030 QNH3002INS 
     BECMG 2715/2716 21010G15KT 9999 SCT030 QNH2996INS TX28/2622Z TN16/2708Z LAST NO AMDS AFT 2623 NEXT 2711
       
KMYL 270520Z 2706/2806 14006KT 5SM -SHRASN BR BKN020 OVC030 
     FM270800 13005KT 1SM -SN BR BKN008 OVC020 
     FM271500 VRB04KT 6SM -SHSN BR BKN015 OVC040 
     FM272100 30008KT P6SM OVC025 
     FM280200 33005KT P6SM BKN100
       
KMYR 270539Z 2706/2806 17007KT P6SM SCT045 
     TEMPO 2709/2713 3SM BR 
     FM271700 17010G15KT P6SM SCT060 
     FM280000 18008KT P6SM SCT010 AMD LTD TO CLD VIS AND WIND TIL 271000